sensor_id;sensor_type;location;lat;lon;timestamp;P1;durP1;ratioP1;P2;durP2;ratioP2
35691;SDS011;26978;44.830;-0.674;2022-07-29T00:02:08;4.97;;;1.83;;
35691;SDS011;26978;44.830;-0.674;2022-07-29T00:04:34;8.25;;;1.90;;
35691;SDS011;26978;44.830;-0.674;2022-07-29T00:07:00;3.40;;;1.90;;
35691;SDS011;26978;44.830;-0.674;2022-07-29T00:09:26;10.10;;;2.00;;
35691;SDS011;26978;44.830;-0.674;2022-07-29T00:11:52;4.95;;;1.83;;
35691;SDS011;26978;44.830;-0.674;2022-07-29T00:14:20;4.82;;;2.00;;
35691;SDS011;26978;44.830;-0.674;2022-07-29T00:16:46;4.53;;;2.05;;
35691;SDS011;26978;44.830;-0.674;2022-07-29T00:19:12;9.10;;;2.10;;
35691;SDS011;26978;44.830;-0.674;2022-07-29T00:21:37;6.43;;;2.22;;
35691;SDS011;26978;44.830;-0.674;2022-07-29T00:24:03;7.20;;;2.60;;
35691;SDS011;26978;44.830;-0.674;2022-07-29T00:26:29;10.13;;;2.15;;
35691;SDS011;26978;44.830;-0.674;2022-07-29T00:28:57;6.95;;;2.22;;
35691;SDS011;26978;44.830;-0.674;2022-07-29T00:31:24;4.70;;;1.70;;
35691;SDS011;26978;44.830;-0.674;2022-07-29T00:33:49;10.93;;;2.95;;
35691;SDS011;26978;44.830;-0.674;2022-07-29T00:36:15;9.55;;;2.65;;
35691;SDS011;26978;44.830;-0.674;2022-07-29T00:38:41;7.72;;;2.15;;
35691;SDS011;26978;44.830;-0.674;2022-07-29T00:41:10;6.43;;;2.33;;
35691;SDS011;26978;44.830;-0.674;2022-07-29T00:43:36;11.95;;;2.50;;
35691;SDS011;26978;44.830;-0.674;2022-07-29T00:46:02;7.22;;;2.00;;
35691;SDS011;26978;44.830;-0.674;2022-07-29T00:48:28;14.77;;;2.95;;
35691;SDS011;26978;44.830;-0.674;2022-07-29T00:50:54;11.52;;;2.40;;
35691;SDS011;26978;44.830;-0.674;2022-07-29T00:53:22;7.55;;;2.28;;
35691;SDS011;26978;44.830;-0.674;2022-07-29T00:55:49;5.82;;;2.05;;
35691;SDS011;26978;44.830;-0.674;2022-07-29T00:58:15;11.98;;;2.28;;
35691;SDS011;26978;44.830;-0.674;2022-07-29T01:00:41;5.63;;;2.25;;
35691;SDS011;26978;44.830;-0.674;2022-07-29T01:03:07;9.18;;;2.20;;
35691;SDS011;26978;44.830;-0.674;2022-07-29T01:05:33;3.08;;;1.85;;
35691;SDS011;26978;44.830;-0.674;2022-07-29T01:08:00;6.88;;;2.10;;
35691;SDS011;26978;44.830;-0.674;2022-07-29T01:10:27;8.30;;;2.35;;
35691;SDS011;26978;44.830;-0.674;2022-07-29T01:12:54;8.95;;;2.30;;
35691;SDS011;26978;44.830;-0.674;2022-07-29T01:15:22;10.02;;;3.05;;
35691;SDS011;26978;44.830;-0.674;2022-07-29T01:20:22;9.70;;;2.55;;
35691;SDS011;26978;44.830;-0.674;2022-07-29T01:23:11;10.45;;;2.10;;
35691;SDS011;26978;44.830;-0.674;2022-07-29T01:29:52;5.10;;;2.38;;
35691;SDS011;26978;44.830;-0.674;2022-07-29T01:32:13;9.55;;;3.17;;
35691;SDS011;26978;44.830;-0.674;2022-07-29T01:34:52;9.93;;;2.13;;
35691;SDS011;26978;44.830;-0.674;2022-07-29T01:37:29;6.70;;;2.22;;
35691;SDS011;26978;44.830;-0.674;2022-07-29T01:39:55;13.13;;;2.15;;
35691;SDS011;26978;44.830;-0.674;2022-07-29T01:45:14;6.28;;;2.20;;
35691;SDS011;26978;44.830;-0.674;2022-07-29T01:47:46;8.23;;;2.70;;
35691;SDS011;26978;44.830;-0.674;2022-07-29T01:50:16;6.88;;;2.40;;
35691;SDS011;26978;44.830;-0.674;2022-07-29T01:55:18;6.28;;;2.38;;
35691;SDS011;26978;44.830;-0.674;2022-07-29T01:57:47;9.90;;;2.75;;
35691;SDS011;26978;44.830;-0.674;2022-07-29T02:00:14;7.80;;;2.35;;
35691;SDS011;26978;44.830;-0.674;2022-07-29T02:02:41;4.50;;;2.30;;
35691;SDS011;26978;44.830;-0.674;2022-07-29T02:05:09;12.98;;;2.60;;
35691;SDS011;26978;44.830;-0.674;2022-07-29T02:07:37;8.32;;;2.72;;
35691;SDS011;26978;44.830;-0.674;2022-07-29T02:10:05;6.43;;;2.35;;
35691;SDS011;26978;44.830;-0.674;2022-07-29T02:12:33;13.48;;;2.17;;
35691;SDS011;26978;44.830;-0.674;2022-07-29T02:15:01;5.93;;;2.33;;
35691;SDS011;26978;44.830;-0.674;2022-07-29T02:17:51;9.85;;;2.70;;
35691;SDS011;26978;44.830;-0.674;2022-07-29T02:20:19;8.15;;;2.50;;
35691;SDS011;26978;44.830;-0.674;2022-07-29T02:22:44;8.40;;;2.58;;
35691;SDS011;26978;44.830;-0.674;2022-07-29T02:25:11;6.32;;;2.40;;
35691;SDS011;26978;44.830;-0.674;2022-07-29T02:27:38;7.43;;;2.30;;
35691;SDS011;26978;44.830;-0.674;2022-07-29T02:30:06;6.63;;;2.40;;
35691;SDS011;26978;44.830;-0.674;2022-07-29T02:32:34;11.88;;;2.72;;
35691;SDS011;26978;44.830;-0.674;2022-07-29T02:35:02;10.10;;;2.75;;
35691;SDS011;26978;44.830;-0.674;2022-07-29T02:37:28;9.60;;;2.60;;
35691;SDS011;26978;44.830;-0.674;2022-07-29T02:39:55;6.18;;;2.50;;
35691;SDS011;26978;44.830;-0.674;2022-07-29T02:42:23;6.22;;;2.30;;
35691;SDS011;26978;44.830;-0.674;2022-07-29T02:44:52;4.30;;;2.30;;
35691;SDS011;26978;44.830;-0.674;2022-07-29T02:47:35;7.97;;;2.70;;
35691;SDS011;26978;44.830;-0.674;2022-07-29T02:50:11;4.80;;;2.22;;
35691;SDS011;26978;44.830;-0.674;2022-07-29T02:52:44;7.35;;;2.55;;
35691;SDS011;26978;44.830;-0.674;2022-07-29T02:55:24;7.25;;;2.92;;
35691;SDS011;26978;44.830;-0.674;2022-07-29T03:01:03;5.78;;;2.50;;
35691;SDS011;26978;44.830;-0.674;2022-07-29T03:03:37;5.32;;;2.30;;
35691;SDS011;26978;44.830;-0.674;2022-07-29T03:06:04;9.00;;;2.85;;
35691;SDS011;26978;44.830;-0.674;2022-07-29T03:08:31;9.55;;;2.55;;
35691;SDS011;26978;44.830;-0.674;2022-07-29T03:10:57;6.20;;;2.38;;
35691;SDS011;26978;44.830;-0.674;2022-07-29T03:13:24;7.05;;;2.80;;
35691;SDS011;26978;44.830;-0.674;2022-07-29T03:15:50;6.30;;;2.30;;
35691;SDS011;26978;44.830;-0.674;2022-07-29T03:18:18;8.32;;;2.35;;
35691;SDS011;26978;44.830;-0.674;2022-07-29T03:20:43;8.93;;;2.33;;
35691;SDS011;26978;44.830;-0.674;2022-07-29T03:23:09;5.43;;;2.70;;
35691;SDS011;26978;44.830;-0.674;2022-07-29T03:25:35;7.35;;;1.95;;
35691;SDS011;26978;44.830;-0.674;2022-07-29T03:28:01;9.80;;;3.47;;
35691;SDS011;26978;44.830;-0.674;2022-07-29T03:30:26;9.93;;;2.45;;
35691;SDS011;26978;44.830;-0.674;2022-07-29T03:32:55;8.57;;;3.20;;
35691;SDS011;26978;44.830;-0.674;2022-07-29T03:35:21;5.90;;;2.38;;
35691;SDS011;26978;44.830;-0.674;2022-07-29T03:37:47;14.07;;;2.42;;
35691;SDS011;26978;44.830;-0.674;2022-07-29T03:40:14;6.18;;;2.55;;
35691;SDS011;26978;44.830;-0.674;2022-07-29T03:42:43;8.10;;;2.17;;
35691;SDS011;26978;44.830;-0.674;2022-07-29T03:45:12;6.72;;;2.40;;
35691;SDS011;26978;44.830;-0.674;2022-07-29T03:47:45;7.43;;;2.53;;
35691;SDS011;26978;44.830;-0.674;2022-07-29T03:50:15;8.63;;;2.88;;
35691;SDS011;26978;44.830;-0.674;2022-07-29T03:52:42;5.45;;;2.38;;
35691;SDS011;26978;44.830;-0.674;2022-07-29T03:55:08;10.45;;;2.35;;
35691;SDS011;26978;44.830;-0.674;2022-07-29T03:57:34;8.73;;;2.33;;
35691;SDS011;26978;44.830;-0.674;2022-07-29T04:00:01;8.98;;;2.92;;
35691;SDS011;26978;44.830;-0.674;2022-07-29T04:02:29;10.35;;;2.85;;
35691;SDS011;26978;44.830;-0.674;2022-07-29T04:04:56;8.55;;;2.20;;
35691;SDS011;26978;44.830;-0.674;2022-07-29T04:07:22;11.35;;;2.92;;
35691;SDS011;26978;44.830;-0.674;2022-07-29T04:09:48;7.75;;;2.60;;
35691;SDS011;26978;44.830;-0.674;2022-07-29T04:12:13;4.28;;;2.10;;
35691;SDS011;26978;44.830;-0.674;2022-07-29T04:14:39;11.23;;;2.20;;
35691;SDS011;26978;44.830;-0.674;2022-07-29T04:17:05;6.40;;;2.38;;
35691;SDS011;26978;44.830;-0.674;2022-07-29T04:19:31;7.90;;;2.30;;
35691;SDS011;26978;44.830;-0.674;2022-07-29T04:21:58;11.88;;;2.95;;
35691;SDS011;26978;44.830;-0.674;2022-07-29T04:24:24;9.70;;;2.80;;
35691;SDS011;26978;44.830;-0.674;2022-07-29T04:26:50;11.15;;;2.78;;
35691;SDS011;26978;44.830;-0.674;2022-07-29T04:29:16;12.60;;;2.55;;
35691;SDS011;26978;44.830;-0.674;2022-07-29T04:31:42;11.20;;;2.80;;
35691;SDS011;26978;44.830;-0.674;2022-07-29T04:34:08;6.70;;;2.28;;
35691;SDS011;26978;44.830;-0.674;2022-07-29T04:36:34;10.77;;;3.00;;
35691;SDS011;26978;44.830;-0.674;2022-07-29T04:39:00;6.93;;;3.47;;
35691;SDS011;26978;44.830;-0.674;2022-07-29T04:41:26;10.48;;;3.55;;
35691;SDS011;26978;44.830;-0.674;2022-07-29T04:43:55;11.60;;;3.20;;
35691;SDS011;26978;44.830;-0.674;2022-07-29T04:46:21;6.70;;;3.20;;
35691;SDS011;26978;44.830;-0.674;2022-07-29T04:48:47;7.25;;;2.92;;
35691;SDS011;26978;44.830;-0.674;2022-07-29T04:51:14;10.43;;;3.17;;
35691;SDS011;26978;44.830;-0.674;2022-07-29T04:53:40;8.30;;;3.20;;
35691;SDS011;26978;44.830;-0.674;2022-07-29T04:56:06;11.95;;;3.03;;
35691;SDS011;26978;44.830;-0.674;2022-07-29T04:58:33;12.30;;;3.58;;
35691;SDS011;26978;44.830;-0.674;2022-07-29T05:01:00;14.75;;;3.40;;
35691;SDS011;26978;44.830;-0.674;2022-07-29T05:03:26;6.38;;;3.15;;
35691;SDS011;26978;44.830;-0.674;2022-07-29T05:05:52;13.15;;;3.67;;
35691;SDS011;26978;44.830;-0.674;2022-07-29T05:08:17;9.57;;;3.67;;
35691;SDS011;26978;44.830;-0.674;2022-07-29T05:10:43;5.55;;;2.97;;
35691;SDS011;26978;44.830;-0.674;2022-07-29T05:13:08;12.13;;;3.67;;
35691;SDS011;26978;44.830;-0.674;2022-07-29T05:15:34;12.45;;;3.05;;
35691;SDS011;26978;44.830;-0.674;2022-07-29T05:18:01;17.80;;;3.38;;
35691;SDS011;26978;44.830;-0.674;2022-07-29T05:20:27;14.73;;;3.63;;
35691;SDS011;26978;44.830;-0.674;2022-07-29T05:22:56;10.73;;;3.35;;
35691;SDS011;26978;44.830;-0.674;2022-07-29T05:25:23;12.07;;;3.72;;
35691;SDS011;26978;44.830;-0.674;2022-07-29T05:27:49;14.52;;;3.90;;
35691;SDS011;26978;44.830;-0.674;2022-07-29T05:30:15;9.75;;;3.63;;
35691;SDS011;26978;44.830;-0.674;2022-07-29T05:32:41;18.27;;;4.07;;
35691;SDS011;26978;44.830;-0.674;2022-07-29T05:35:07;16.95;;;4.30;;
35691;SDS011;26978;44.830;-0.674;2022-07-29T05:37:33;9.93;;;4.10;;
35691;SDS011;26978;44.830;-0.674;2022-07-29T05:39:59;14.85;;;4.72;;
35691;SDS011;26978;44.830;-0.674;2022-07-29T05:42:25;8.45;;;4.50;;
35691;SDS011;26978;44.830;-0.674;2022-07-29T05:44:51;8.57;;;4.60;;
35691;SDS011;26978;44.830;-0.674;2022-07-29T05:47:17;15.95;;;5.45;;
35691;SDS011;26978;44.830;-0.674;2022-07-29T05:49:43;11.68;;;5.85;;
35691;SDS011;26978;44.830;-0.674;2022-07-29T05:52:09;14.65;;;5.57;;
35691;SDS011;26978;44.830;-0.674;2022-07-29T05:54:35;8.38;;;5.18;;
35691;SDS011;26978;44.830;-0.674;2022-07-29T05:57:02;8.98;;;5.00;;
35691;SDS011;26978;44.830;-0.674;2022-07-29T05:59:28;14.35;;;5.70;;
35691;SDS011;26978;44.830;-0.674;2022-07-29T06:01:54;13.73;;;4.90;;
35691;SDS011;26978;44.830;-0.674;2022-07-29T06:04:20;11.48;;;5.05;;
35691;SDS011;26978;44.830;-0.674;2022-07-29T06:06:45;13.30;;;5.80;;
35691;SDS011;26978;44.830;-0.674;2022-07-29T06:09:11;7.97;;;4.45;;
35691;SDS011;26978;44.830;-0.674;2022-07-29T06:11:37;11.15;;;5.03;;
35691;SDS011;26978;44.830;-0.674;2022-07-29T06:14:02;16.15;;;5.47;;
35691;SDS011;26978;44.830;-0.674;2022-07-29T06:16:28;12.38;;;4.30;;
35691;SDS011;26978;44.830;-0.674;2022-07-29T06:18:54;8.30;;;4.30;;
35691;SDS011;26978;44.830;-0.674;2022-07-29T06:21:20;11.88;;;4.38;;
35691;SDS011;26978;44.830;-0.674;2022-07-29T06:23:45;12.45;;;4.50;;
35691;SDS011;26978;44.830;-0.674;2022-07-29T06:26:11;13.10;;;4.43;;
35691;SDS011;26978;44.830;-0.674;2022-07-29T06:28:37;12.90;;;4.63;;
35691;SDS011;26978;44.830;-0.674;2022-07-29T06:31:02;10.20;;;4.57;;
35691;SDS011;26978;44.830;-0.674;2022-07-29T06:33:28;12.38;;;4.32;;
35691;SDS011;26978;44.830;-0.674;2022-07-29T06:35:54;12.90;;;4.30;;
35691;SDS011;26978;44.830;-0.674;2022-07-29T06:38:20;18.55;;;4.43;;
35691;SDS011;26978;44.830;-0.674;2022-07-29T06:40:46;16.33;;;5.00;;
35691;SDS011;26978;44.830;-0.674;2022-07-29T06:43:37;12.90;;;4.40;;
35691;SDS011;26978;44.830;-0.674;2022-07-29T06:46:06;10.85;;;4.05;;
35691;SDS011;26978;44.830;-0.674;2022-07-29T06:48:33;14.63;;;5.18;;
35691;SDS011;26978;44.830;-0.674;2022-07-29T06:51:01;10.02;;;3.72;;
35691;SDS011;26978;44.830;-0.674;2022-07-29T06:53:27;11.02;;;3.90;;
35691;SDS011;26978;44.830;-0.674;2022-07-29T06:55:53;14.68;;;4.68;;
35691;SDS011;26978;44.830;-0.674;2022-07-29T06:58:19;13.48;;;4.00;;
35691;SDS011;26978;44.830;-0.674;2022-07-29T07:00:46;9.07;;;3.78;;
35691;SDS011;26978;44.830;-0.674;2022-07-29T07:03:12;10.13;;;3.90;;
35691;SDS011;26978;44.830;-0.674;2022-07-29T07:05:39;9.10;;;4.03;;
35691;SDS011;26978;44.830;-0.674;2022-07-29T07:08:05;12.35;;;3.88;;
35691;SDS011;26978;44.830;-0.674;2022-07-29T07:10:31;11.23;;;5.72;;
35691;SDS011;26978;44.830;-0.674;2022-07-29T07:12:57;18.98;;;4.68;;
35691;SDS011;26978;44.830;-0.674;2022-07-29T07:15:24;9.95;;;4.38;;
35691;SDS011;26978;44.830;-0.674;2022-07-29T07:17:49;9.00;;;4.28;;
35691;SDS011;26978;44.830;-0.674;2022-07-29T07:20:16;6.80;;;3.53;;
35691;SDS011;26978;44.830;-0.674;2022-07-29T07:22:42;11.15;;;4.35;;
35691;SDS011;26978;44.830;-0.674;2022-07-29T07:25:08;11.85;;;3.90;;
35691;SDS011;26978;44.830;-0.674;2022-07-29T07:27:35;12.30;;;4.18;;
35691;SDS011;26978;44.830;-0.674;2022-07-29T07:30:01;14.27;;;4.13;;
35691;SDS011;26978;44.830;-0.674;2022-07-29T07:32:28;12.85;;;3.17;;
35691;SDS011;26978;44.830;-0.674;2022-07-29T07:34:54;9.00;;;2.95;;
35691;SDS011;26978;44.830;-0.674;2022-07-29T07:37:19;7.70;;;2.70;;
35691;SDS011;26978;44.830;-0.674;2022-07-29T07:39:45;8.70;;;3.50;;
35691;SDS011;26978;44.830;-0.674;2022-07-29T07:42:11;9.85;;;2.95;;
35691;SDS011;26978;44.830;-0.674;2022-07-29T07:44:38;8.13;;;2.70;;
35691;SDS011;26978;44.830;-0.674;2022-07-29T07:47:04;8.25;;;3.42;;
35691;SDS011;26978;44.830;-0.674;2022-07-29T07:49:30;7.90;;;2.95;;
35691;SDS011;26978;44.830;-0.674;2022-07-29T07:51:56;12.98;;;2.90;;
35691;SDS011;26978;44.830;-0.674;2022-07-29T07:54:21;8.73;;;2.35;;
35691;SDS011;26978;44.830;-0.674;2022-07-29T07:56:47;4.03;;;2.05;;
35691;SDS011;26978;44.830;-0.674;2022-07-29T07:59:14;8.38;;;2.55;;
35691;SDS011;26978;44.830;-0.674;2022-07-29T08:01:41;9.40;;;2.65;;
35691;SDS011;26978;44.830;-0.674;2022-07-29T08:04:07;4.75;;;2.28;;
35691;SDS011;26978;44.830;-0.674;2022-07-29T08:06:33;7.53;;;2.28;;
35691;SDS011;26978;44.830;-0.674;2022-07-29T08:09:05;6.75;;;2.38;;
35691;SDS011;26978;44.830;-0.674;2022-07-29T08:11:31;8.55;;;2.60;;
35691;SDS011;26978;44.830;-0.674;2022-07-29T08:13:57;3.80;;;2.25;;
35691;SDS011;26978;44.830;-0.674;2022-07-29T08:16:23;5.20;;;1.63;;
35691;SDS011;26978;44.830;-0.674;2022-07-29T08:18:50;9.57;;;2.00;;
35691;SDS011;26978;44.830;-0.674;2022-07-29T08:21:16;9.23;;;2.25;;
35691;SDS011;26978;44.830;-0.674;2022-07-29T08:23:45;5.93;;;1.98;;
35691;SDS011;26978;44.830;-0.674;2022-07-29T08:26:15;3.65;;;1.90;;
35691;SDS011;26978;44.830;-0.674;2022-07-29T08:28:42;7.95;;;2.20;;
35691;SDS011;26978;44.830;-0.674;2022-07-29T08:31:15;6.70;;;2.35;;
35691;SDS011;26978;44.830;-0.674;2022-07-29T08:33:41;4.05;;;2.10;;
35691;SDS011;26978;44.830;-0.674;2022-07-29T08:36:07;9.77;;;2.83;;
35691;SDS011;26978;44.830;-0.674;2022-07-29T08:38:33;10.40;;;2.10;;
35691;SDS011;26978;44.830;-0.674;2022-07-29T08:41:00;3.20;;;1.73;;
35691;SDS011;26978;44.830;-0.674;2022-07-29T08:43:27;7.93;;;1.80;;
35691;SDS011;26978;44.830;-0.674;2022-07-29T08:45:53;7.90;;;1.50;;
35691;SDS011;26978;44.830;-0.674;2022-07-29T08:48:20;7.47;;;2.30;;
35691;SDS011;26978;44.830;-0.674;2022-07-29T08:50:48;4.30;;;2.00;;
35691;SDS011;26978;44.830;-0.674;2022-07-29T08:53:17;5.90;;;2.13;;
35691;SDS011;26978;44.830;-0.674;2022-07-29T08:55:45;9.00;;;2.50;;
35691;SDS011;26978;44.830;-0.674;2022-07-29T08:58:13;7.50;;;1.77;;
35691;SDS011;26978;44.830;-0.674;2022-07-29T09:00:43;6.97;;;1.90;;
35691;SDS011;26978;44.830;-0.674;2022-07-29T09:03:12;12.48;;;1.65;;
35691;SDS011;26978;44.830;-0.674;2022-07-29T09:05:44;6.18;;;1.35;;
35691;SDS011;26978;44.830;-0.674;2022-07-29T09:08:11;4.35;;;1.50;;
35691;SDS011;26978;44.830;-0.674;2022-07-29T09:10:38;8.70;;;1.45;;
35691;SDS011;26978;44.830;-0.674;2022-07-29T09:13:03;4.30;;;1.23;;
35691;SDS011;26978;44.830;-0.674;2022-07-29T09:15:29;5.47;;;1.63;;
35691;SDS011;26978;44.830;-0.674;2022-07-29T09:17:55;4.07;;;1.10;;
35691;SDS011;26978;44.830;-0.674;2022-07-29T09:20:23;7.10;;;1.30;;
35691;SDS011;26978;44.830;-0.674;2022-07-29T09:22:49;6.03;;;1.48;;
35691;SDS011;26978;44.830;-0.674;2022-07-29T09:25:36;3.05;;;1.10;;
35691;SDS011;26978;44.830;-0.674;2022-07-29T09:30:33;4.97;;;0.82;;
35691;SDS011;26978;44.830;-0.674;2022-07-29T09:32:59;2.72;;;1.33;;
35691;SDS011;26978;44.830;-0.674;2022-07-29T09:35:27;2.83;;;0.70;;
35691;SDS011;26978;44.830;-0.674;2022-07-29T09:37:54;4.43;;;1.20;;
35691;SDS011;26978;44.830;-0.674;2022-07-29T09:40:24;3.10;;;1.08;;
35691;SDS011;26978;44.830;-0.674;2022-07-29T09:42:51;4.82;;;1.20;;
35691;SDS011;26978;44.830;-0.674;2022-07-29T09:45:29;2.92;;;1.20;;
35691;SDS011;26978;44.830;-0.674;2022-07-29T09:47:56;2.22;;;1.05;;
35691;SDS011;26978;44.830;-0.674;2022-07-29T09:50:40;4.22;;;0.90;;
35691;SDS011;26978;44.830;-0.674;2022-07-29T09:53:08;2.03;;;0.90;;
35691;SDS011;26978;44.830;-0.674;2022-07-29T09:55:50;4.00;;;1.45;;
35691;SDS011;26978;44.830;-0.674;2022-07-29T09:58:17;2.88;;;1.42;;
35691;SDS011;26978;44.830;-0.674;2022-07-29T10:00:44;3.80;;;1.20;;
35691;SDS011;26978;44.830;-0.674;2022-07-29T10:03:11;7.78;;;1.58;;
35691;SDS011;26978;44.830;-0.674;2022-07-29T10:05:37;7.55;;;1.92;;
35691;SDS011;26978;44.830;-0.674;2022-07-29T10:08:04;3.25;;;1.48;;
35691;SDS011;26978;44.830;-0.674;2022-07-29T10:10:31;6.82;;;2.00;;
35691;SDS011;26978;44.830;-0.674;2022-07-29T10:13:06;3.08;;;1.30;;
35691;SDS011;26978;44.830;-0.674;2022-07-29T10:15:35;9.60;;;2.08;;
35691;SDS011;26978;44.830;-0.674;2022-07-29T10:18:03;6.55;;;1.75;;
35691;SDS011;26978;44.830;-0.674;2022-07-29T10:20:29;4.00;;;1.33;;
35691;SDS011;26978;44.830;-0.674;2022-07-29T10:22:55;6.00;;;1.25;;
35691;SDS011;26978;44.830;-0.674;2022-07-29T10:25:21;4.70;;;1.25;;
35691;SDS011;26978;44.830;-0.674;2022-07-29T10:27:48;2.67;;;1.20;;
35691;SDS011;26978;44.830;-0.674;2022-07-29T10:30:16;3.47;;;1.58;;
35691;SDS011;26978;44.830;-0.674;2022-07-29T10:32:53;7.93;;;1.30;;
35691;SDS011;26978;44.830;-0.674;2022-07-29T10:40:57;3.92;;;1.35;;
35691;SDS011;26978;44.830;-0.674;2022-07-29T10:46:28;3.85;;;1.25;;
35691;SDS011;26978;44.830;-0.674;2022-07-29T10:49:10;4.38;;;1.70;;
35691;SDS011;26978;44.830;-0.674;2022-07-29T10:59:47;6.85;;;1.58;;
35691;SDS011;26978;44.830;-0.674;2022-07-29T11:07:27;6.18;;;1.55;;
35691;SDS011;26978;44.830;-0.674;2022-07-29T11:15:18;4.90;;;1.40;;
35691;SDS011;26978;44.830;-0.674;2022-07-29T11:26:15;5.78;;;1.42;;
35691;SDS011;26978;44.830;-0.674;2022-07-29T11:31:17;7.38;;;1.50;;
35691;SDS011;26978;44.830;-0.674;2022-07-29T11:34:19;4.68;;;1.50;;
35691;SDS011;26978;44.830;-0.674;2022-07-29T11:39:39;4.75;;;1.27;;
35691;SDS011;26978;44.830;-0.674;2022-07-29T11:45:04;6.13;;;1.67;;
35691;SDS011;26978;44.830;-0.674;2022-07-29T11:47:31;5.10;;;1.50;;
35691;SDS011;26978;44.830;-0.674;2022-07-29T11:50:12;6.53;;;1.55;;
35691;SDS011;26978;44.830;-0.674;2022-07-29T11:52:40;6.10;;;1.55;;
35691;SDS011;26978;44.830;-0.674;2022-07-29T11:55:08;3.05;;;1.15;;
35691;SDS011;26978;44.830;-0.674;2022-07-29T11:57:37;4.57;;;1.38;;
35691;SDS011;26978;44.830;-0.674;2022-07-29T12:00:24;5.32;;;1.48;;
35691;SDS011;26978;44.830;-0.674;2022-07-29T12:02:53;5.82;;;1.10;;
35691;SDS011;26978;44.830;-0.674;2022-07-29T12:05:20;2.08;;;0.70;;
35691;SDS011;26978;44.830;-0.674;2022-07-29T12:07:46;3.28;;;1.27;;
35691;SDS011;26978;44.830;-0.674;2022-07-29T12:10:13;9.00;;;1.30;;
35691;SDS011;26978;44.830;-0.674;2022-07-29T12:12:39;5.65;;;0.90;;
35691;SDS011;26978;44.830;-0.674;2022-07-29T12:15:12;3.22;;;0.75;;
35691;SDS011;26978;44.830;-0.674;2022-07-29T12:17:43;2.67;;;0.90;;
35691;SDS011;26978;44.830;-0.674;2022-07-29T12:20:09;3.65;;;0.90;;
35691;SDS011;26978;44.830;-0.674;2022-07-29T12:22:36;2.70;;;0.90;;
35691;SDS011;26978;44.830;-0.674;2022-07-29T12:25:09;5.38;;;1.10;;
35691;SDS011;26978;44.830;-0.674;2022-07-29T12:27:37;5.18;;;1.20;;
35691;SDS011;26978;44.830;-0.674;2022-07-29T12:30:07;4.43;;;1.33;;
35691;SDS011;26978;44.830;-0.674;2022-07-29T12:32:36;3.80;;;0.88;;
35691;SDS011;26978;44.830;-0.674;2022-07-29T12:35:10;3.75;;;0.80;;
35691;SDS011;26978;44.830;-0.674;2022-07-29T12:37:38;3.28;;;1.10;;
35691;SDS011;26978;44.830;-0.674;2022-07-29T12:40:06;6.00;;;1.33;;
35691;SDS011;26978;44.830;-0.674;2022-07-29T12:42:33;2.40;;;1.58;;
35691;SDS011;26978;44.830;-0.674;2022-07-29T12:45:00;4.15;;;1.58;;
35691;SDS011;26978;44.830;-0.674;2022-07-29T12:47:26;1.40;;;0.65;;
35691;SDS011;26978;44.830;-0.674;2022-07-29T12:50:07;1.92;;;0.68;;
35691;SDS011;26978;44.830;-0.674;2022-07-29T12:52:39;4.43;;;1.00;;
35691;SDS011;26978;44.830;-0.674;2022-07-29T12:55:05;2.15;;;1.00;;
35691;SDS011;26978;44.830;-0.674;2022-07-29T12:57:31;4.95;;;1.00;;
35691;SDS011;26978;44.830;-0.674;2022-07-29T13:00:07;3.25;;;0.77;;
35691;SDS011;26978;44.830;-0.674;2022-07-29T13:02:36;2.88;;;0.70;;
35691;SDS011;26978;44.830;-0.674;2022-07-29T13:05:03;4.80;;;1.25;;
35691;SDS011;26978;44.830;-0.674;2022-07-29T13:07:31;2.55;;;1.17;;
35691;SDS011;26978;44.830;-0.674;2022-07-29T13:10:14;6.65;;;0.77;;
35691;SDS011;26978;44.830;-0.674;2022-07-29T13:15:39;1.52;;;0.60;;
35691;SDS011;26978;44.830;-0.674;2022-07-29T13:18:26;4.47;;;0.80;;
35691;SDS011;26978;44.830;-0.674;2022-07-29T13:20:56;5.65;;;0.70;;
35691;SDS011;26978;44.830;-0.674;2022-07-29T13:23:22;4.88;;;0.88;;
35691;SDS011;26978;44.830;-0.674;2022-07-29T13:25:48;0.80;;;0.50;;
35691;SDS011;26978;44.830;-0.674;2022-07-29T13:28:14;1.33;;;0.52;;
35691;SDS011;26978;44.830;-0.674;2022-07-29T13:30:39;1.77;;;0.60;;
35691;SDS011;26978;44.830;-0.674;2022-07-29T13:33:06;1.95;;;0.30;;
35691;SDS011;26978;44.830;-0.674;2022-07-29T13:35:31;3.25;;;0.70;;
35691;SDS011;26978;44.830;-0.674;2022-07-29T13:37:57;1.83;;;0.80;;
35691;SDS011;26978;44.830;-0.674;2022-07-29T13:40:23;1.23;;;0.50;;
35691;SDS011;26978;44.830;-0.674;2022-07-29T13:42:48;0.63;;;0.30;;
35691;SDS011;26978;44.830;-0.674;2022-07-29T13:45:15;2.05;;;0.57;;
35691;SDS011;26978;44.830;-0.674;2022-07-29T13:47:41;2.67;;;0.52;;
35691;SDS011;26978;44.830;-0.674;2022-07-29T13:50:07;3.70;;;0.40;;
35691;SDS011;26978;44.830;-0.674;2022-07-29T13:52:35;2.13;;;0.40;;
35691;SDS011;26978;44.830;-0.674;2022-07-29T13:55:03;1.75;;;0.55;;
35691;SDS011;26978;44.830;-0.674;2022-07-29T13:57:29;1.30;;;0.30;;
35691;SDS011;26978;44.830;-0.674;2022-07-29T13:59:55;0.47;;;0.30;;
35691;SDS011;26978;44.830;-0.674;2022-07-29T14:02:21;0.65;;;0.30;;
35691;SDS011;26978;44.830;-0.674;2022-07-29T14:04:47;1.80;;;0.30;;
35691;SDS011;26978;44.830;-0.674;2022-07-29T14:07:13;1.45;;;0.43;;
35691;SDS011;26978;44.830;-0.674;2022-07-29T14:09:39;2.95;;;0.40;;
35691;SDS011;26978;44.830;-0.674;2022-07-29T14:12:04;0.40;;;0.30;;
35691;SDS011;26978;44.830;-0.674;2022-07-29T14:14:30;0.73;;;0.30;;
35691;SDS011;26978;44.830;-0.674;2022-07-29T14:16:57;1.30;;;0.30;;
35691;SDS011;26978;44.830;-0.674;2022-07-29T14:19:23;1.45;;;0.40;;
35691;SDS011;26978;44.830;-0.674;2022-07-29T14:21:49;1.35;;;0.22;;
35691;SDS011;26978;44.830;-0.674;2022-07-29T14:24:15;1.60;;;0.40;;
35691;SDS011;26978;44.830;-0.674;2022-07-29T14:26:40;2.72;;;0.30;;
35691;SDS011;26978;44.830;-0.674;2022-07-29T14:29:06;1.65;;;0.35;;
35691;SDS011;26978;44.830;-0.674;2022-07-29T14:31:32;2.13;;;0.30;;
35691;SDS011;26978;44.830;-0.674;2022-07-29T14:33:57;0.95;;;0.30;;
35691;SDS011;26978;44.830;-0.674;2022-07-29T14:36:23;0.85;;;0.30;;
35691;SDS011;26978;44.830;-0.674;2022-07-29T14:38:49;1.80;;;0.25;;
35691;SDS011;26978;44.830;-0.674;2022-07-29T14:41:14;1.88;;;0.60;;
35691;SDS011;26978;44.830;-0.674;2022-07-29T14:43:40;0.75;;;0.38;;
35691;SDS011;26978;44.830;-0.674;2022-07-29T14:46:06;1.10;;;0.30;;
35691;SDS011;26978;44.830;-0.674;2022-07-29T14:48:32;1.00;;;0.40;;
35691;SDS011;26978;44.830;-0.674;2022-07-29T14:50:58;2.33;;;0.57;;
35691;SDS011;26978;44.830;-0.674;2022-07-29T14:53:24;0.43;;;0.20;;
35691;SDS011;26978;44.830;-0.674;2022-07-29T14:55:49;4.15;;;0.50;;
35691;SDS011;26978;44.830;-0.674;2022-07-29T14:58:15;0.60;;;0.20;;
35691;SDS011;26978;44.830;-0.674;2022-07-29T15:00:41;0.57;;;0.30;;
35691;SDS011;26978;44.830;-0.674;2022-07-29T15:03:07;0.75;;;0.20;;
35691;SDS011;26978;44.830;-0.674;2022-07-29T15:05:35;1.00;;;0.40;;
35691;SDS011;26978;44.830;-0.674;2022-07-29T15:08:01;0.77;;;0.30;;
35691;SDS011;26978;44.830;-0.674;2022-07-29T15:10:27;1.95;;;0.50;;
35691;SDS011;26978;44.830;-0.674;2022-07-29T15:12:53;0.70;;;0.30;;
35691;SDS011;26978;44.830;-0.674;2022-07-29T15:15:19;1.15;;;0.30;;
35691;SDS011;26978;44.830;-0.674;2022-07-29T15:17:45;1.20;;;0.47;;
35691;SDS011;26978;44.830;-0.674;2022-07-29T15:20:11;1.58;;;0.32;;
35691;SDS011;26978;44.830;-0.674;2022-07-29T15:22:37;3.50;;;0.40;;
35691;SDS011;26978;44.830;-0.674;2022-07-29T15:25:04;0.75;;;0.38;;
35691;SDS011;26978;44.830;-0.674;2022-07-29T15:27:30;1.70;;;0.50;;
35691;SDS011;26978;44.830;-0.674;2022-07-29T15:29:56;1.25;;;0.30;;
35691;SDS011;26978;44.830;-0.674;2022-07-29T15:32:22;1.05;;;0.32;;
35691;SDS011;26978;44.830;-0.674;2022-07-29T15:34:48;0.50;;;0.30;;
35691;SDS011;26978;44.830;-0.674;2022-07-29T15:37:13;1.27;;;0.40;;
35691;SDS011;26978;44.830;-0.674;2022-07-29T15:39:39;1.02;;;0.30;;